createdAt,value
2018-12-29T00:00:45.391Z,8.19
2018-12-29T00:01:18.474Z,8.19
2018-12-29T00:01:51.617Z,8.19
2018-12-29T00:02:24.473Z,8.13
2018-12-29T00:02:57.404Z,8.13
2018-12-29T00:03:30.462Z,8.13
2018-12-29T00:04:03.531Z,8.13
2018-12-29T00:04:36.402Z,8.13
2018-12-29T00:05:09.451Z,8.13
2018-12-29T00:05:42.319Z,8.13
2018-12-29T00:06:15.307Z,8.13
2018-12-29T00:06:48.376Z,8.13
2018-12-29T00:07:21.308Z,8.13
2018-12-29T00:07:54.378Z,8.13
2018-12-29T00:08:27.597Z,8.13
2018-12-29T00:09:00.493Z,8.13
2018-12-29T00:09:33.324Z,8.13
2018-12-29T00:10:06.312Z,8.06
2018-12-29T00:10:41.197Z,8.06
2018-12-29T00:11:14.161Z,8.13
2018-12-29T00:11:47.094Z,8.06
2018-12-29T00:12:20.049Z,8.06
2018-12-29T00:12:53.111Z,8.13
2018-12-29T00:13:26.152Z,8.06
2018-12-29T00:13:59.124Z,8.06
2018-12-29T00:14:31.982Z,8.13
2018-12-29T00:15:05.078Z,8.06
2018-12-29T00:15:38.025Z,8.06
2018-12-29T00:16:10.897Z,8.06
2018-12-29T00:16:43.990Z,8.06
2018-12-29T00:17:16.969Z,8.06
2018-12-29T00:17:49.926Z,8.06
2018-12-29T00:18:22.880Z,8.06
2018-12-29T00:18:55.863Z,8.06
2018-12-29T00:19:28.878Z,8.06
2018-12-29T00:20:01.933Z,8.06
2018-12-29T00:20:35.002Z,8.06
2018-12-29T00:21:07.938Z,8.06
2018-12-29T00:21:41.011Z,8.06
2018-12-29T00:22:13.856Z,8.06
2018-12-29T00:22:46.812Z,8.06
2018-12-29T00:23:19.838Z,8.06
2018-12-29T00:23:52.770Z,8.13
2018-12-29T00:24:25.826Z,8.13
2018-12-29T00:24:58.910Z,8.13
2018-12-29T00:25:31.963Z,8.13
2018-12-29T00:26:05.133Z,8.13
2018-12-29T00:26:38.204Z,8.13
2018-12-29T00:27:11.264Z,8.13
2018-12-29T00:27:44.248Z,8.13
2018-12-29T00:28:17.242Z,8.13
2018-12-29T00:28:50.183Z,8.13
2018-12-29T00:29:23.092Z,8.13
2018-12-29T00:29:56.176Z,8.13
2018-12-29T00:30:29.229Z,8.13
2018-12-29T00:31:02.154Z,8.13
2018-12-29T00:31:35.400Z,8.13
2018-12-29T00:32:08.346Z,8.13
2018-12-29T00:32:41.459Z,8.13
2018-12-29T00:33:14.372Z,8.13
2018-12-29T00:33:47.401Z,8.06
2018-12-29T00:34:20.208Z,8.06
2018-12-29T00:34:53.340Z,8.06
2018-12-29T00:35:26.396Z,8.06
2018-12-29T00:35:59.406Z,8.06
2018-12-29T00:36:32.299Z,8.06
2018-12-29T00:37:05.363Z,8.06
2018-12-29T00:37:38.370Z,8.06
2018-12-29T00:38:11.305Z,8.06
2018-12-29T00:38:44.230Z,8.06
2018-12-29T00:39:17.129Z,8.06
2018-12-29T00:39:50.087Z,8.06
2018-12-29T00:40:23.126Z,8.06
2018-12-29T00:40:56.053Z,8.06
2018-12-29T00:41:28.970Z,8.06
2018-12-29T00:42:01.900Z,8.06
2018-12-29T00:42:34.695Z,8.13
2018-12-29T00:43:07.597Z,8.06
2018-12-29T00:43:40.420Z,8.06
2018-12-29T00:44:13.365Z,8.06
2018-12-29T00:44:46.165Z,8.06
2018-12-29T00:45:19.179Z,8.06
2018-12-29T00:45:52.093Z,8.06
2018-12-29T00:46:25.026Z,8.06
2018-12-29T00:46:57.925Z,8.06
2018-12-29T00:47:30.758Z,8.06
2018-12-29T00:48:03.875Z,8.13
2018-12-29T00:48:36.714Z,8.13
2018-12-29T00:49:09.529Z,8.06
2018-12-29T00:49:42.447Z,8.13
2018-12-29T00:50:15.457Z,8.06
2018-12-29T00:50:48.417Z,8.13
2018-12-29T00:51:21.411Z,8.13
2018-12-29T00:51:54.336Z,8.13
2018-12-29T00:52:27.261Z,8.13
2018-12-29T00:53:00.085Z,8.13
2018-12-29T00:53:33.013Z,8.13
2018-12-29T00:54:06.069Z,8.13
2018-12-29T00:54:39.038Z,8.13
2018-12-29T00:55:11.987Z,8.13
2018-12-29T00:55:44.869Z,8.06
2018-12-29T00:56:17.989Z,8.13
2018-12-29T00:56:50.895Z,8.13
2018-12-29T00:57:23.719Z,8.13
2018-12-29T00:57:56.539Z,8.13
2018-12-29T00:58:29.573Z,8.06
2018-12-29T00:59:02.463Z,8.06
2018-12-29T00:59:35.397Z,8.13
2018-12-29T01:00:08.431Z,8.06
2018-12-29T01:00:41.289Z,8.06
2018-12-29T01:01:14.103Z,8.06
2018-12-29T01:01:47.123Z,8.06
2018-12-29T01:02:20.056Z,8.06
2018-12-29T01:02:52.997Z,8.06
2018-12-29T01:03:25.959Z,8.06
2018-12-29T01:03:58.783Z,8.06
2018-12-29T01:04:31.719Z,8.06
2018-12-29T01:05:04.739Z,8.06
2018-12-29T01:05:37.855Z,8.06
2018-12-29T01:06:10.871Z,8.06
2018-12-29T01:06:43.799Z,8.13
2018-12-29T01:07:16.907Z,8.06
2018-12-29T01:07:49.845Z,8.06
2018-12-29T01:08:22.959Z,8.06
2018-12-29T01:08:55.908Z,8.06
2018-12-29T01:09:28.718Z,8.06
2018-12-29T01:10:01.812Z,8.00
2018-12-29T01:10:34.834Z,8.00
2018-12-29T01:11:07.639Z,8.00
2018-12-29T01:11:40.573Z,8.00
2018-12-29T01:13:01.248Z,8.00
2018-12-29T01:13:34.527Z,8.00
2018-12-29T01:14:07.385Z,8.00
2018-12-29T01:14:40.319Z,8.00
2018-12-29T01:15:13.181Z,8.00
2018-12-29T01:15:46.115Z,8.00
2018-12-29T01:16:19.053Z,8.00
2018-12-29T01:16:52.014Z,8.00
2018-12-29T01:17:25.091Z,8.00
2018-12-29T01:17:58.085Z,8.00
2018-12-29T01:18:31.192Z,8.00
2018-12-29T01:19:04.235Z,8.00
2018-12-29T01:19:37.333Z,8.00
2018-12-29T01:20:10.361Z,8.00
2018-12-29T01:20:43.442Z,8.00
2018-12-29T01:21:30.655Z,8.00
2018-12-29T01:22:03.803Z,8.00
2018-12-29T01:22:37.003Z,8.00
2018-12-29T01:23:09.900Z,8.00
2018-12-29T01:24:39.395Z,8.00
2018-12-29T01:25:12.472Z,8.00
2018-12-29T01:25:45.445Z,8.00
2018-12-29T01:26:18.397Z,8.00
2018-12-29T01:26:51.408Z,8.00
2018-12-29T01:27:24.447Z,8.00
2018-12-29T01:27:57.519Z,8.00
2018-12-29T01:28:30.486Z,8.00
2018-12-29T01:29:03.564Z,8.00
2018-12-29T01:29:36.504Z,8.00
2018-12-29T01:30:09.456Z,8.00
2018-12-29T01:30:42.546Z,8.00
2018-12-29T01:31:15.507Z,8.00
2018-12-29T01:31:48.581Z,8.00
2018-12-29T01:32:21.410Z,8.00
2018-12-29T01:32:54.496Z,8.00
2018-12-29T01:33:47.172Z,8.00
2018-12-29T01:34:20.012Z,8.00
2018-12-29T01:34:52.890Z,7.94
2018-12-29T01:35:25.943Z,8.00
2018-12-29T01:35:58.888Z,8.00
2018-12-29T01:36:31.795Z,7.94
2018-12-29T01:37:04.822Z,7.94
2018-12-29T01:37:37.900Z,7.94
2018-12-29T01:38:10.862Z,7.94
2018-12-29T01:38:43.948Z,7.94
2018-12-29T01:39:17.023Z,8.00
2018-12-29T01:39:49.882Z,8.00
2018-12-29T01:40:22.856Z,8.00
2018-12-29T01:40:55.724Z,8.00
2018-12-29T01:41:28.596Z,8.00
2018-12-29T01:42:01.562Z,8.00
2018-12-29T01:42:34.636Z,7.94
2018-12-29T01:43:07.620Z,7.94
2018-12-29T01:43:40.538Z,7.94
2018-12-29T01:44:13.561Z,7.94
2018-12-29T01:44:46.747Z,7.94
2018-12-29T01:45:19.816Z,7.94
2018-12-29T01:45:52.840Z,7.94
2018-12-29T01:46:25.731Z,7.94
2018-12-29T01:46:58.876Z,7.94
2018-12-29T01:47:31.904Z,7.94
2018-12-29T01:48:04.823Z,7.94
2018-12-29T01:48:37.750Z,7.94
2018-12-29T01:49:12.598Z,7.94
2018-12-29T01:49:45.561Z,7.94
2018-12-29T01:50:18.632Z,7.94
2018-12-29T01:50:51.780Z,7.94
2018-12-29T01:51:24.844Z,7.94
2018-12-29T01:51:59.774Z,8.00
2018-12-29T01:52:32.800Z,7.94
2018-12-29T01:53:05.909Z,7.94
2018-12-29T01:55:05.648Z,8.00
2018-12-29T01:55:38.590Z,8.00
2018-12-29T01:56:11.474Z,8.00
2018-12-29T01:56:44.404Z,8.00
2018-12-29T01:57:17.327Z,8.00
2018-12-29T01:57:50.268Z,8.00
2018-12-29T01:58:23.232Z,8.00
2018-12-29T01:58:56.256Z,8.00
2018-12-29T01:59:29.150Z,8.00
2018-12-29T02:00:02.238Z,8.00
2018-12-29T02:00:35.292Z,8.00
2018-12-29T02:01:08.150Z,8.00
2018-12-29T02:01:41.139Z,8.06
2018-12-29T02:02:13.960Z,8.00
2018-12-29T02:02:46.916Z,8.00
2018-12-29T02:03:19.873Z,8.00
2018-12-29T02:03:53.569Z,8.00
2018-12-29T02:04:26.706Z,8.00
2018-12-29T02:04:59.680Z,8.06
2018-12-29T02:05:32.658Z,8.06
2018-12-29T02:06:05.759Z,8.06
2018-12-29T02:06:38.821Z,8.06
2018-12-29T02:07:11.809Z,8.06
2018-12-29T02:07:44.675Z,8.00
2018-12-29T02:08:17.713Z,8.00
2018-12-29T02:08:50.687Z,8.00
2018-12-29T02:09:23.651Z,8.00
2018-12-29T02:09:56.698Z,8.00
2018-12-29T02:10:29.741Z,8.00
2018-12-29T02:11:02.722Z,8.00
2018-12-29T02:11:35.753Z,8.00
2018-12-29T02:12:08.696Z,8.00
2018-12-29T02:12:41.779Z,8.00
2018-12-29T02:13:14.727Z,8.00
2018-12-29T02:13:47.701Z,8.00
2018-12-29T02:14:20.768Z,8.00
2018-12-29T02:14:53.645Z,8.06
2018-12-29T02:15:26.489Z,8.06
2018-12-29T02:15:59.335Z,8.00
2018-12-29T02:16:32.407Z,8.00
2018-12-29T02:17:05.358Z,8.00
2018-12-29T02:17:38.249Z,8.00
2018-12-29T02:18:13.281Z,8.06
2018-12-29T02:18:54.360Z,8.06
2018-12-29T02:19:27.329Z,8.00
2018-12-29T02:20:00.369Z,8.00
2018-12-29T02:20:33.397Z,8.00
2018-12-29T02:21:06.351Z,8.00
2018-12-29T02:21:39.415Z,8.00
2018-12-29T02:22:12.393Z,8.00
2018-12-29T02:22:45.328Z,8.00
2018-12-29T02:23:18.226Z,8.00
2018-12-29T02:23:51.103Z,8.00
2018-12-29T02:24:24.150Z,8.00
2018-12-29T02:24:57.143Z,7.94
2018-12-29T02:25:30.137Z,7.94
2018-12-29T02:26:03.070Z,7.94
2018-12-29T02:26:36.036Z,7.87
2018-12-29T02:27:09.087Z,7.87
2018-12-29T02:27:42.115Z,7.87
2018-12-29T02:28:15.097Z,7.87
2018-12-29T02:28:48.221Z,7.87
2018-12-29T02:29:21.263Z,7.87
2018-12-29T02:29:54.207Z,7.87
2018-12-29T02:30:27.088Z,7.87
2018-12-29T02:31:00.107Z,7.87
2018-12-29T02:31:33.144Z,7.87
2018-12-29T02:32:06.111Z,7.87
2018-12-29T02:32:38.993Z,7.87
2018-12-29T02:33:11.943Z,7.87
2018-12-29T02:34:53.828Z,7.87
2018-12-29T02:35:26.657Z,7.87
2018-12-29T02:35:59.658Z,7.87
2018-12-29T02:36:32.617Z,7.87
2018-12-29T02:37:05.427Z,7.87
2018-12-29T02:37:38.531Z,7.87
2018-12-29T02:38:11.479Z,7.81
2018-12-29T02:38:44.553Z,7.81
2018-12-29T02:39:17.526Z,7.81
2018-12-29T02:39:50.496Z,7.81
2018-12-29T02:40:23.524Z,7.81
2018-12-29T02:40:56.691Z,7.75
2018-12-29T02:41:29.620Z,7.75
2018-12-29T02:42:02.663Z,7.75
2018-12-29T02:42:35.568Z,7.75
2018-12-29T02:43:08.429Z,7.75
2018-12-29T02:43:41.473Z,7.69
2018-12-29T02:44:14.414Z,7.69
2018-12-29T02:44:47.444Z,7.69
2018-12-29T02:45:20.365Z,7.69
2018-12-29T02:45:53.307Z,7.69
2018-12-29T02:46:26.374Z,7.69
2018-12-29T02:46:59.246Z,7.69
2018-12-29T02:47:32.265Z,7.69
2018-12-29T02:48:05.244Z,7.62
2018-12-29T02:48:38.192Z,7.62
2018-12-29T02:49:11.194Z,7.62
2018-12-29T02:49:57.557Z,7.56
2018-12-29T02:50:30.420Z,7.56
2018-12-29T02:51:03.378Z,7.56
2018-12-29T02:51:36.412Z,7.50
2018-12-29T02:52:09.327Z,7.50
2018-12-29T02:52:42.298Z,7.50
2018-12-29T02:53:15.244Z,7.50
2018-12-29T02:53:48.280Z,7.50
2018-12-29T02:54:21.273Z,7.50
2018-12-29T02:54:54.221Z,7.50
2018-12-29T02:55:27.183Z,7.44
2018-12-29T02:56:00.059Z,7.44
2018-12-29T02:56:33.112Z,7.44
2018-12-29T02:57:06.046Z,7.44
2018-12-29T02:57:39.101Z,7.44
2018-12-29T02:58:12.093Z,7.44
2018-12-29T02:58:45.164Z,7.44
2018-12-29T02:59:18.193Z,7.44
2018-12-29T02:59:51.242Z,7.44
2018-12-29T03:00:24.178Z,7.44
2018-12-29T03:00:57.267Z,7.44
2018-12-29T03:01:30.228Z,7.44
2018-12-29T03:02:03.574Z,7.44
2018-12-29T03:02:38.416Z,7.44
2018-12-29T03:03:11.283Z,7.44
2018-12-29T03:03:44.238Z,7.44
2018-12-29T03:04:17.103Z,7.44
2018-12-29T03:04:50.285Z,7.44
2018-12-29T03:05:23.253Z,7.44
2018-12-29T03:05:56.182Z,7.44
2018-12-29T03:06:29.118Z,7.44
2018-12-29T03:07:02.036Z,7.44
2018-12-29T03:07:35.113Z,7.44
2018-12-29T03:08:08.002Z,7.44
2018-12-29T03:08:40.936Z,7.44
2018-12-29T03:09:13.821Z,7.44
2018-12-29T03:09:46.775Z,7.44
2018-12-29T03:10:19.875Z,7.44
2018-12-29T03:10:52.834Z,7.44
2018-12-29T03:11:25.633Z,7.44
2018-12-29T03:11:59.266Z,7.44
2018-12-29T03:12:32.164Z,7.44
2018-12-29T03:13:05.019Z,7.44
2018-12-29T03:13:37.912Z,7.50
2018-12-29T03:14:10.965Z,7.50
2018-12-29T03:14:43.874Z,7.50
2018-12-29T03:15:16.682Z,7.50
2018-12-29T03:15:49.677Z,7.50
2018-12-29T03:16:22.603Z,7.50
2018-12-29T03:16:55.489Z,7.50
2018-12-29T03:17:28.447Z,7.50
2018-12-29T03:18:01.348Z,7.50
2018-12-29T03:18:34.172Z,7.50
2018-12-29T03:19:07.171Z,7.50
2018-12-29T03:19:40.361Z,7.50
2018-12-29T03:20:13.400Z,7.50
2018-12-29T03:20:46.347Z,7.50
2018-12-29T03:21:19.146Z,7.50
2018-12-29T03:21:52.190Z,7.50
2018-12-29T03:22:25.095Z,7.50
2018-12-29T03:22:57.917Z,7.50
2018-12-29T03:23:30.735Z,7.50
2018-12-29T03:24:03.711Z,7.50
2018-12-29T03:24:36.738Z,7.56
2018-12-29T03:25:09.749Z,7.56
2018-12-29T03:25:42.761Z,7.56
2018-12-29T03:26:15.677Z,7.56
2018-12-29T03:26:48.501Z,7.56
2018-12-29T03:27:21.275Z,7.56
2018-12-29T03:27:54.126Z,7.56
2018-12-29T03:28:26.911Z,7.56
2018-12-29T03:28:59.831Z,7.56
2018-12-29T03:29:32.727Z,7.62
2018-12-29T03:30:05.961Z,7.62
2018-12-29T03:30:38.851Z,7.62
2018-12-29T03:31:11.865Z,7.62
2018-12-29T03:31:44.651Z,7.62
2018-12-29T03:32:17.550Z,7.62
2018-12-29T03:32:50.364Z,7.62
2018-12-29T03:33:23.242Z,7.62
2018-12-29T03:33:56.239Z,7.62
2018-12-29T03:34:29.293Z,7.62
2018-12-29T03:35:02.303Z,7.62
2018-12-29T03:35:35.313Z,7.62
2018-12-29T03:36:08.355Z,7.62
2018-12-29T03:36:41.235Z,7.62
2018-12-29T03:37:14.058Z,7.62
2018-12-29T03:37:47.046Z,7.62
2018-12-29T03:38:19.874Z,7.62
2018-12-29T03:38:52.672Z,7.62
2018-12-29T03:39:25.618Z,7.62
2018-12-29T03:39:58.641Z,7.62
2018-12-29T03:40:31.535Z,7.69
2018-12-29T03:41:45.500Z,7.69
2018-12-29T03:42:20.425Z,7.69
2018-12-29T03:42:53.370Z,7.69
2018-12-29T03:43:26.378Z,7.69
2018-12-29T03:43:59.365Z,7.69
2018-12-29T03:44:32.423Z,7.69
2018-12-29T03:45:05.647Z,7.69
2018-12-29T03:45:38.934Z,7.62
2018-12-29T03:46:12.122Z,7.62
2018-12-29T03:46:45.171Z,7.62
2018-12-29T03:47:18.148Z,7.62
2018-12-29T03:47:51.163Z,7.69
2018-12-29T03:48:24.197Z,7.69
2018-12-29T03:48:57.375Z,7.69
2018-12-29T03:49:30.365Z,7.69
2018-12-29T03:50:03.938Z,7.69
2018-12-29T03:51:00.045Z,7.69
2018-12-29T03:51:33.150Z,7.69
2018-12-29T03:52:06.143Z,7.69
2018-12-29T03:53:26.945Z,7.75
2018-12-29T03:53:59.874Z,7.75
2018-12-29T03:54:32.878Z,7.75
2018-12-29T03:55:05.879Z,7.75
2018-12-29T03:55:39.045Z,7.75
2018-12-29T03:56:12.250Z,7.75
2018-12-29T03:56:45.427Z,7.75
2018-12-29T03:57:18.382Z,7.75
2018-12-29T03:57:51.249Z,7.75
2018-12-29T03:58:24.222Z,7.75
2018-12-29T03:58:57.070Z,7.75
2018-12-29T03:59:29.928Z,7.75
2018-12-29T04:00:03.524Z,7.75
2018-12-29T04:00:36.449Z,7.75
2018-12-29T04:01:09.506Z,7.81
2018-12-29T04:01:42.564Z,7.75
2018-12-29T04:02:15.675Z,7.75
2018-12-29T04:02:48.657Z,7.75
2018-12-29T04:03:21.594Z,7.75
2018-12-29T04:03:54.726Z,7.75
2018-12-29T04:04:27.768Z,7.75
2018-12-29T04:05:00.873Z,7.75
2018-12-29T04:05:33.905Z,7.75
2018-12-29T04:06:06.933Z,7.75
2018-12-29T04:06:39.894Z,7.81
2018-12-29T04:07:12.948Z,7.75
2018-12-29T04:07:46.002Z,7.81
2018-12-29T04:08:18.954Z,7.81
2018-12-29T04:09:49.472Z,7.81
2018-12-29T04:10:22.437Z,7.81
2018-12-29T04:10:55.461Z,7.81
2018-12-29T04:11:28.318Z,7.81
2018-12-29T04:12:23.363Z,7.81
2018-12-29T04:13:00.735Z,7.81
2018-12-29T04:13:34.864Z,7.81
2018-12-29T04:14:07.834Z,7.81
2018-12-29T04:14:41.424Z,7.81
2018-12-29T04:15:15.382Z,7.81
2018-12-29T04:15:48.384Z,7.81
2018-12-29T04:16:21.340Z,7.81
2018-12-29T04:16:54.580Z,7.81
2018-12-29T04:17:27.549Z,7.81
2018-12-29T04:18:00.634Z,7.81
2018-12-29T04:18:33.528Z,7.81
2018-12-29T04:19:06.373Z,7.81
2018-12-29T04:19:39.249Z,7.81
2018-12-29T04:20:12.200Z,7.81
2018-12-29T04:20:45.150Z,7.81
2018-12-29T04:21:18.172Z,7.81
2018-12-29T04:21:51.170Z,7.81
2018-12-29T04:22:24.026Z,7.81
2018-12-29T04:22:57.003Z,7.75
2018-12-29T04:23:29.934Z,7.81
2018-12-29T04:24:03.031Z,7.81
2018-12-29T04:24:35.906Z,7.81
2018-12-29T04:25:08.985Z,7.81
2018-12-29T04:25:42.026Z,7.81
2018-12-29T04:26:14.956Z,7.81
2018-12-29T04:26:48.015Z,7.81
2018-12-29T04:27:21.010Z,7.81
2018-12-29T04:27:53.972Z,7.81
2018-12-29T04:28:26.829Z,7.81
2018-12-29T04:28:59.866Z,7.81
2018-12-29T04:29:32.822Z,7.81
2018-12-29T04:30:05.833Z,7.81
2018-12-29T04:30:38.749Z,7.81
2018-12-29T04:31:11.791Z,7.81
2018-12-29T04:31:44.890Z,7.81
2018-12-29T04:32:17.848Z,7.81
2018-12-29T04:32:50.827Z,7.81
2018-12-29T04:33:51.466Z,7.81
2018-12-29T04:34:24.429Z,7.81
2018-12-29T04:34:57.368Z,7.81
2018-12-29T04:36:15.970Z,7.81
2018-12-29T04:36:48.948Z,7.81
2018-12-29T04:37:21.885Z,7.81
2018-12-29T04:37:54.979Z,7.81
2018-12-29T04:38:28.063Z,7.81
2018-12-29T04:39:00.924Z,7.81
2018-12-29T04:39:34.009Z,7.81
2018-12-29T04:40:07.063Z,7.81
2018-12-29T04:40:39.919Z,7.81
2018-12-29T04:41:12.767Z,7.81
2018-12-29T04:41:45.703Z,7.81
2018-12-29T04:42:18.625Z,7.81
2018-12-29T04:42:51.655Z,7.81
2018-12-29T04:43:26.495Z,7.81
2018-12-29T04:43:59.554Z,7.81
2018-12-29T04:44:32.662Z,7.81
2018-12-29T04:45:05.784Z,7.81
2018-12-29T04:45:38.843Z,7.81
2018-12-29T04:46:11.888Z,7.81
2018-12-29T04:46:44.741Z,7.81
2018-12-29T04:47:17.790Z,7.81
2018-12-29T04:47:50.840Z,7.81
2018-12-29T04:48:23.923Z,7.81
2018-12-29T04:48:56.959Z,7.81
2018-12-29T04:49:29.927Z,7.81
2018-12-29T04:50:03.079Z,7.81
2018-12-29T04:50:36.126Z,7.87
2018-12-29T04:51:09.216Z,7.87
2018-12-29T04:51:42.245Z,7.87
2018-12-29T04:52:15.203Z,7.87
2018-12-29T04:52:48.283Z,7.87
2018-12-29T04:53:21.111Z,7.87
2018-12-29T04:53:54.065Z,7.87
2018-12-29T04:54:27.203Z,7.87
2018-12-29T04:55:00.088Z,7.87
2018-12-29T04:55:47.239Z,7.87
2018-12-29T04:56:20.353Z,7.87
2018-12-29T04:56:53.413Z,7.87
2018-12-29T04:57:26.391Z,7.87
2018-12-29T04:57:59.397Z,7.87
2018-12-29T04:58:32.473Z,7.87
2018-12-29T04:59:05.427Z,7.87
2018-12-29T04:59:38.285Z,7.87
2018-12-29T05:00:11.371Z,7.87
2018-12-29T05:00:44.487Z,7.87
2018-12-29T05:01:17.649Z,7.87
2018-12-29T05:01:50.725Z,7.87
2018-12-29T05:02:37.793Z,7.87
2018-12-29T05:03:10.823Z,7.87
2018-12-29T05:03:43.908Z,7.87
2018-12-29T05:04:16.827Z,7.87
2018-12-29T05:04:49.881Z,7.87
2018-12-29T05:05:22.893Z,7.87
2018-12-29T05:05:55.983Z,7.87
2018-12-29T05:06:28.959Z,7.87
2018-12-29T05:07:01.977Z,7.87
2018-12-29T05:07:34.907Z,7.87
2018-12-29T05:08:07.895Z,7.87
2018-12-29T05:08:41.074Z,7.87
2018-12-29T05:09:14.016Z,7.87
2018-12-29T05:09:46.816Z,7.87
2018-12-29T05:10:19.775Z,7.87
2018-12-29T05:10:52.661Z,7.87
2018-12-29T05:11:25.713Z,7.87
2018-12-29T05:11:58.514Z,7.87
2018-12-29T05:12:31.450Z,7.87
2018-12-29T05:13:04.256Z,7.87
2018-12-29T05:13:37.337Z,7.87
2018-12-29T05:14:10.242Z,7.87
2018-12-29T05:14:43.191Z,7.87
2018-12-29T05:15:16.195Z,7.87
2018-12-29T05:15:49.244Z,7.87
2018-12-29T05:16:22.231Z,7.87
2018-12-29T05:16:55.418Z,7.87
2018-12-29T05:17:28.211Z,7.87
2018-12-29T05:18:01.258Z,7.87
2018-12-29T05:18:34.053Z,7.87
2018-12-29T05:19:06.991Z,7.87
2018-12-29T05:19:39.825Z,7.87
2018-12-29T05:20:12.769Z,7.87
2018-12-29T05:21:08.605Z,7.87
2018-12-29T05:21:41.577Z,7.87
2018-12-29T05:22:14.506Z,7.87
2018-12-29T05:22:47.389Z,7.87
2018-12-29T05:23:20.383Z,7.87
2018-12-29T05:24:41.445Z,7.87
2018-12-29T05:25:14.548Z,7.94
2018-12-29T05:25:47.496Z,7.94
2018-12-29T05:26:20.441Z,7.94
2018-12-29T05:26:53.457Z,7.94
2018-12-29T05:27:26.435Z,7.94
2018-12-29T05:27:59.550Z,7.94
2018-12-29T05:28:32.489Z,7.94
2018-12-29T05:29:05.473Z,7.94
2018-12-29T05:29:38.555Z,7.94
2018-12-29T05:30:11.489Z,7.94
2018-12-29T05:30:44.437Z,7.94
2018-12-29T05:31:17.518Z,7.94
2018-12-29T05:31:50.461Z,7.94
2018-12-29T05:32:23.355Z,7.94
2018-12-29T05:32:56.173Z,7.94
2018-12-29T05:33:29.073Z,7.94
2018-12-29T05:34:02.257Z,7.94
2018-12-29T05:34:35.087Z,7.94
2018-12-29T05:35:08.002Z,7.94
2018-12-29T05:35:40.912Z,7.94
2018-12-29T05:36:13.971Z,7.94
2018-12-29T05:36:46.978Z,7.94
2018-12-29T05:37:19.814Z,7.94
2018-12-29T05:37:52.608Z,7.94
2018-12-29T05:38:25.657Z,7.94
2018-12-29T05:38:58.543Z,7.94
2018-12-29T05:39:31.380Z,7.94
2018-12-29T05:40:04.397Z,7.94
2018-12-29T05:40:37.579Z,7.94
2018-12-29T05:41:10.504Z,7.94
2018-12-29T05:41:43.336Z,7.87
2018-12-29T05:42:16.244Z,7.94
2018-12-29T05:42:49.189Z,7.94
2018-12-29T05:43:22.139Z,7.94
2018-12-29T05:43:54.921Z,7.94
2018-12-29T05:44:27.744Z,7.94
2018-12-29T05:45:00.753Z,7.94
2018-12-29T05:45:33.678Z,7.94
2018-12-29T05:46:06.613Z,7.94
2018-12-29T05:46:39.442Z,7.94
2018-12-29T05:47:12.366Z,7.94
2018-12-29T05:47:45.366Z,8.00
2018-12-29T05:48:18.180Z,7.94
2018-12-29T05:48:51.092Z,8.00
2018-12-29T05:49:24.046Z,8.00
2018-12-29T05:49:56.955Z,8.00
2018-12-29T05:50:29.916Z,8.00
2018-12-29T05:51:02.922Z,8.00
2018-12-29T05:51:35.864Z,8.00
2018-12-29T05:52:08.784Z,8.00
2018-12-29T05:52:41.682Z,8.00
2018-12-29T05:53:14.614Z,8.00
2018-12-29T05:53:49.359Z,8.00
2018-12-29T05:54:22.254Z,8.00
2018-12-29T05:54:55.224Z,8.06
2018-12-29T05:55:28.060Z,8.00
2018-12-29T05:56:01.041Z,8.06
2018-12-29T05:56:34.220Z,8.00
2018-12-29T05:57:07.166Z,8.00
2018-12-29T05:57:39.977Z,8.00
2018-12-29T05:58:12.972Z,8.00
2018-12-29T05:58:45.973Z,8.00
2018-12-29T05:59:19.132Z,8.00
2018-12-29T05:59:52.208Z,8.00
2018-12-29T06:00:25.159Z,8.00
2018-12-29T06:00:58.118Z,8.00
2018-12-29T06:01:31.282Z,8.00
2018-12-29T06:02:04.256Z,8.00
2018-12-29T06:02:37.152Z,7.94
2018-12-29T06:03:10.044Z,8.00
2018-12-29T06:03:42.948Z,7.94
2018-12-29T06:04:15.861Z,7.94
2018-12-29T06:04:48.776Z,7.94
2018-12-29T06:05:21.794Z,7.87
2018-12-29T06:05:54.650Z,7.87
2018-12-29T06:06:47.237Z,7.87
2018-12-29T06:07:20.168Z,7.81
2018-12-29T06:07:53.136Z,7.81
2018-12-29T06:08:26.006Z,7.81
2018-12-29T06:08:58.904Z,7.81
2018-12-29T06:09:31.859Z,7.75
2018-12-29T06:10:04.928Z,7.75
2018-12-29T06:10:37.928Z,7.75
2018-12-29T06:11:10.899Z,7.69
2018-12-29T06:11:43.848Z,7.69
2018-12-29T06:12:16.758Z,7.69
2018-12-29T06:12:49.644Z,7.69
2018-12-29T06:13:22.608Z,7.62
2018-12-29T06:13:55.662Z,7.62
2018-12-29T06:14:28.534Z,7.62
2018-12-29T06:15:01.638Z,7.62
2018-12-29T06:15:34.628Z,7.62
2018-12-29T06:16:07.609Z,7.62
2018-12-29T06:16:40.580Z,7.56
2018-12-29T06:17:13.640Z,7.56
2018-12-29T06:17:46.616Z,7.56
2018-12-29T06:18:19.447Z,7.56
2018-12-29T06:18:52.496Z,7.56
2018-12-29T06:19:25.453Z,7.56
2018-12-29T06:19:58.296Z,7.50
2018-12-29T06:20:31.342Z,7.50
2018-12-29T06:21:04.414Z,7.50
2018-12-29T06:21:37.502Z,7.50
2018-12-29T06:22:10.470Z,7.50
2018-12-29T06:22:43.343Z,7.50
2018-12-29T06:23:16.431Z,7.50
2018-12-29T06:23:49.470Z,7.44
2018-12-29T06:24:22.398Z,7.44
2018-12-29T06:24:55.468Z,7.44
2018-12-29T06:25:28.403Z,7.44
2018-12-29T06:26:01.270Z,7.44
2018-12-29T06:26:34.346Z,7.50
2018-12-29T06:27:07.316Z,7.50
2018-12-29T06:27:40.310Z,7.50
2018-12-29T06:28:13.242Z,7.50
2018-12-29T06:28:46.183Z,7.50
2018-12-29T06:29:19.106Z,7.50
2018-12-29T06:29:52.118Z,7.50
2018-12-29T06:30:25.084Z,7.50
2018-12-29T06:30:58.062Z,7.50
2018-12-29T06:31:31.024Z,7.50
2018-12-29T06:32:04.235Z,7.50
2018-12-29T06:32:37.178Z,7.50
2018-12-29T06:33:10.010Z,7.50
2018-12-29T06:33:42.854Z,7.50
2018-12-29T06:34:15.699Z,7.50
2018-12-29T06:34:48.777Z,7.50
2018-12-29T06:35:21.738Z,7.50
2018-12-29T06:35:54.752Z,7.56
2018-12-29T06:36:27.742Z,7.56
2018-12-29T06:37:00.902Z,7.56
2018-12-29T06:37:33.916Z,7.56
2018-12-29T06:38:06.834Z,7.50
2018-12-29T06:38:39.931Z,7.50
2018-12-29T06:39:13.102Z,7.50
2018-12-29T06:39:46.107Z,7.50
2018-12-29T06:40:19.134Z,7.56
2018-12-29T06:40:52.149Z,7.56
2018-12-29T06:41:25.108Z,7.56
2018-12-29T06:41:57.898Z,7.56
2018-12-29T06:42:30.950Z,7.56
2018-12-29T06:43:03.836Z,7.56
2018-12-29T06:43:36.892Z,7.50
2018-12-29T06:44:09.818Z,7.50
2018-12-29T06:44:42.736Z,7.50
2018-12-29T06:45:15.636Z,7.50
2018-12-29T06:45:48.680Z,7.50
2018-12-29T06:46:21.700Z,7.50
2018-12-29T06:46:54.574Z,7.50
2018-12-29T06:47:27.448Z,7.50
2018-12-29T06:48:00.477Z,7.50
2018-12-29T06:48:33.580Z,7.50
2018-12-29T06:49:06.738Z,7.50
2018-12-29T06:49:39.728Z,7.50
2018-12-29T06:50:12.978Z,7.50
2018-12-29T06:50:45.878Z,7.50
2018-12-29T06:51:19.020Z,7.44
2018-12-29T06:51:51.911Z,7.44
2018-12-29T06:52:24.948Z,7.50
2018-12-29T06:52:57.725Z,7.44
2018-12-29T06:53:30.795Z,7.44
2018-12-29T06:54:03.915Z,7.44
2018-12-29T06:54:36.831Z,7.44
2018-12-29T06:55:09.816Z,7.44
2018-12-29T06:55:42.878Z,7.44
2018-12-29T06:56:15.761Z,7.44
2018-12-29T06:56:48.700Z,7.44
2018-12-29T06:57:21.599Z,7.44
2018-12-29T06:57:54.561Z,7.44
2018-12-29T06:58:27.472Z,7.44
2018-12-29T06:59:00.298Z,7.44
2018-12-29T06:59:33.113Z,7.44
2018-12-29T07:00:06.599Z,7.44
2018-12-29T07:00:39.524Z,7.50
2018-12-29T07:01:12.507Z,7.50
2018-12-29T07:01:45.443Z,7.50
2018-12-29T07:02:18.529Z,7.50
2018-12-29T07:02:51.511Z,7.50
2018-12-29T07:03:24.572Z,7.50
2018-12-29T07:03:57.590Z,7.50
2018-12-29T07:04:30.533Z,7.50
2018-12-29T07:05:03.578Z,7.50
2018-12-29T07:05:36.564Z,7.50
2018-12-29T07:06:09.681Z,7.50
2018-12-29T07:06:42.627Z,7.56
2018-12-29T07:07:15.581Z,7.56
2018-12-29T07:07:48.620Z,7.56
2018-12-29T07:08:21.693Z,7.56
2018-12-29T07:08:54.767Z,7.56
2018-12-29T07:09:27.745Z,7.56
2018-12-29T07:10:00.880Z,7.50
2018-12-29T07:10:33.919Z,7.50
2018-12-29T07:11:06.921Z,7.50
2018-12-29T07:11:39.992Z,7.56
2018-12-29T07:13:39.220Z,7.56
2018-12-29T07:14:12.187Z,7.56
2018-12-29T07:14:45.136Z,7.56
2018-12-29T07:15:18.013Z,7.56
2018-12-29T07:15:51.077Z,7.56
2018-12-29T07:16:24.113Z,7.56
2018-12-29T07:16:57.192Z,7.56
2018-12-29T07:17:30.161Z,7.56
2018-12-29T07:18:03.221Z,7.56
2018-12-29T07:18:36.183Z,7.56
2018-12-29T07:19:09.143Z,7.56
2018-12-29T07:19:42.039Z,7.56
2018-12-29T07:20:15.127Z,7.56
2018-12-29T07:20:47.998Z,7.56
2018-12-29T07:21:20.971Z,7.56
2018-12-29T07:21:53.765Z,7.62
2018-12-29T07:22:26.703Z,7.62
2018-12-29T07:22:59.603Z,7.62
2018-12-29T07:23:32.446Z,7.62
2018-12-29T07:24:05.436Z,7.62
2018-12-29T07:24:38.281Z,7.56
2018-12-29T07:25:11.153Z,7.56
2018-12-29T07:25:44.130Z,7.56
2018-12-29T07:26:17.029Z,7.56
2018-12-29T07:26:49.965Z,7.56
2018-12-29T07:27:22.772Z,7.56
2018-12-29T07:27:55.827Z,7.62
2018-12-29T07:28:28.810Z,7.62
2018-12-29T07:29:01.765Z,7.62
2018-12-29T07:29:38.164Z,7.62
2018-12-29T07:30:22.717Z,7.62
2018-12-29T07:30:56.064Z,7.69
2018-12-29T07:31:29.000Z,7.75
2018-12-29T07:32:02.225Z,7.75
2018-12-29T07:32:35.187Z,7.75
2018-12-29T07:33:08.141Z,7.75